Ellington Field
KEFD : rendu visible

Aérodrome :











RETROUVEZ-NOUS SUR...

 
LOGIN :

S'inscrire | Disclaimer

   EN    FR    IT 

 









Légende :    VFR   VFR Marginal   IFR   IFR Intensif   IFR Très Intensif
Visi : 
Plafond : 
>= 8 km
>= 3000ft
5 à 8 km
1000 à 3000 ft
1500m à 5 km
500 à 1000 ft
800 à 1500m
200 à 500 ft
< 800m
< 200 ft
Symboles :   Orages  Brouillard  Fortes neiges  Fortes précipitations  Vent > 20 kt






- Altitude de l'aérodrome : 32 ft


KEFD - Ellington Field

DERNIER METAR :
  • 201050Z 00000KT 10SM SCT030 BKN220 16/14 A2999

METARs EXPIRÉS :
  • 200950Z 00000KT 10SM SCT035 BKN250 15/14 A2999
  • 200850Z 00000KT 10SM SCT035 15/14 A3000

TAF TAF KEFD
Valide du 20 à 04h jusqu'au 21 à 10h UTC


200400Z 2004/2110 VRB06KT 9999 FEW250 QNH2995INS
BECMG 2009/2010 13006KT 9999 SCT015 BKN030 QNH2998INS
BECMG 2017/2018 15015G25KT 9999 BKN050 QNH2992INS
BECMG 2022/2023 14012KT 9999 BKN030 QNH2991INS TX25/2019Z TN12/2010Z



MET'MAP, la Météo Aéronautique d'un coup d'oeil ! - Copyright ORBIFLY Décembre 2007 - Disclaimer

ORBIFLY MET'MAP TEAM :

Programmation & Développement : Alexandra Zaïnal
Conception & Développement : Baudouin d'Aumeries
Co-Programmation & Développement : Marc-Olivier Méhu
Soutien technique & logistique : Manuel Goepfert

Contact : metmap@orbifly.com




SOURCES & CREDITS :

   NOAA       Earth
Advisory